sensor_id;sensor_type;location;lat;lon;timestamp;P1;durP1;ratioP1;P2;durP2;ratioP2
70725;SDS011;58304;53.104;6.022;2023-04-19T00:02:56;7.72;;;3.88;;
70725;SDS011;58304;53.104;6.022;2023-04-19T00:05:21;8.52;;;4.22;;
70725;SDS011;58304;53.104;6.022;2023-04-19T00:07:48;7.95;;;4.05;;
70725;SDS011;58304;53.104;6.022;2023-04-19T00:10:14;8.40;;;4.05;;
70725;SDS011;58304;53.104;6.022;2023-04-19T00:15:06;7.88;;;4.00;;
70725;SDS011;58304;53.104;6.022;2023-04-19T00:17:32;9.25;;;4.30;;
70725;SDS011;58304;53.104;6.022;2023-04-19T00:19:58;10.07;;;4.47;;
70725;SDS011;58304;53.104;6.022;2023-04-19T00:27:15;7.13;;;3.75;;
70725;SDS011;58304;53.104;6.022;2023-04-19T00:29:41;8.43;;;4.35;;
70725;SDS011;58304;53.104;6.022;2023-04-19T00:36:58;7.93;;;4.03;;
70725;SDS011;58304;53.104;6.022;2023-04-19T00:41:49;7.68;;;4.35;;
70725;SDS011;58304;53.104;6.022;2023-04-19T00:51:32;9.93;;;4.57;;
70725;SDS011;58304;53.104;6.022;2023-04-19T00:53:58;12.50;;;4.70;;
70725;SDS011;58304;53.104;6.022;2023-04-19T00:58:50;11.05;;;4.57;;
70725;SDS011;58304;53.104;6.022;2023-04-19T01:01:17;9.27;;;4.45;;
70725;SDS011;58304;53.104;6.022;2023-04-19T01:03:44;8.75;;;4.40;;
70725;SDS011;58304;53.104;6.022;2023-04-19T01:06:10;10.82;;;4.40;;
70725;SDS011;58304;53.104;6.022;2023-04-19T01:11:01;8.32;;;4.55;;
70725;SDS011;58304;53.104;6.022;2023-04-19T01:18:19;8.07;;;4.25;;
70725;SDS011;58304;53.104;6.022;2023-04-19T01:25:36;10.18;;;4.55;;
70725;SDS011;58304;53.104;6.022;2023-04-19T01:28:03;8.68;;;4.55;;
70725;SDS011;58304;53.104;6.022;2023-04-19T01:32:54;8.90;;;4.93;;
70725;SDS011;58304;53.104;6.022;2023-04-19T01:35:19;12.25;;;5.35;;
70725;SDS011;58304;53.104;6.022;2023-04-19T01:45:02;12.65;;;5.70;;
70725;SDS011;58304;53.104;6.022;2023-04-19T01:47:27;10.02;;;5.50;;
70725;SDS011;58304;53.104;6.022;2023-04-19T01:57:10;14.05;;;5.80;;
70725;SDS011;58304;53.104;6.022;2023-04-19T01:59:35;12.73;;;6.03;;
70725;SDS011;58304;53.104;6.022;2023-04-19T02:04:27;11.30;;;5.97;;
70725;SDS011;58304;53.104;6.022;2023-04-19T02:06:52;11.52;;;5.75;;
70725;SDS011;58304;53.104;6.022;2023-04-19T02:09:18;11.30;;;6.18;;
70725;SDS011;58304;53.104;6.022;2023-04-19T02:11:43;11.52;;;5.90;;
70725;SDS011;58304;53.104;6.022;2023-04-19T02:14:09;12.70;;;6.63;;
70725;SDS011;58304;53.104;6.022;2023-04-19T02:19:00;11.18;;;6.03;;
70725;SDS011;58304;53.104;6.022;2023-04-19T02:21:26;13.73;;;6.50;;
70725;SDS011;58304;53.104;6.022;2023-04-19T02:26:17;12.40;;;6.15;;
70725;SDS011;58304;53.104;6.022;2023-04-19T02:28:44;12.75;;;6.25;;
70725;SDS011;58304;53.104;6.022;2023-04-19T02:33:35;10.95;;;5.63;;
70725;SDS011;58304;53.104;6.022;2023-04-19T02:40:53;13.80;;;6.60;;
70725;SDS011;58304;53.104;6.022;2023-04-19T02:43:18;12.77;;;6.20;;
70725;SDS011;58304;53.104;6.022;2023-04-19T02:48:09;14.80;;;6.28;;
70725;SDS011;58304;53.104;6.022;2023-04-19T02:53:01;14.65;;;6.50;;
70725;SDS011;58304;53.104;6.022;2023-04-19T02:55:26;11.80;;;6.13;;
70725;SDS011;58304;53.104;6.022;2023-04-19T02:57:52;12.65;;;6.85;;
70725;SDS011;58304;53.104;6.022;2023-04-19T03:00:17;13.30;;;6.72;;
70725;SDS011;58304;53.104;6.022;2023-04-19T03:02:43;13.15;;;6.55;;
70725;SDS011;58304;53.104;6.022;2023-04-19T03:10:00;14.48;;;4.88;;
70725;SDS011;58304;53.104;6.022;2023-04-19T03:12:26;13.27;;;6.32;;
70725;SDS011;58304;53.104;6.022;2023-04-19T03:14:51;17.63;;;6.90;;
70725;SDS011;58304;53.104;6.022;2023-04-19T03:17:17;15.25;;;6.57;;
70725;SDS011;58304;53.104;6.022;2023-04-19T03:24:34;11.43;;;4.60;;
70725;SDS011;58304;53.104;6.022;2023-04-19T03:27:00;9.88;;;4.85;;
70725;SDS011;58304;53.104;6.022;2023-04-19T03:29:27;11.82;;;5.03;;
70725;SDS011;58304;53.104;6.022;2023-04-19T03:34:18;9.73;;;4.65;;
70725;SDS011;58304;53.104;6.022;2023-04-19T03:41:35;9.18;;;4.45;;
70725;SDS011;58304;53.104;6.022;2023-04-19T03:44:00;9.98;;;4.40;;
70725;SDS011;58304;53.104;6.022;2023-04-19T03:46:26;8.55;;;3.50;;
70725;SDS011;58304;53.104;6.022;2023-04-19T03:48:55;6.75;;;3.10;;
70725;SDS011;58304;53.104;6.022;2023-04-19T03:51:21;5.55;;;3.08;;
70725;SDS011;58304;53.104;6.022;2023-04-19T03:58:37;5.25;;;2.33;;
70725;SDS011;58304;53.104;6.022;2023-04-19T04:03:30;6.22;;;2.60;;
70725;SDS011;58304;53.104;6.022;2023-04-19T04:05:56;4.72;;;2.45;;
70725;SDS011;58304;53.104;6.022;2023-04-19T04:08:22;7.13;;;2.42;;
70725;SDS011;58304;53.104;6.022;2023-04-19T04:15:38;7.30;;;2.63;;
70725;SDS011;58304;53.104;6.022;2023-04-19T04:18:04;6.82;;;2.38;;
70725;SDS011;58304;53.104;6.022;2023-04-19T04:20:30;7.15;;;3.08;;
70725;SDS011;58304;53.104;6.022;2023-04-19T04:22:55;5.35;;;2.53;;
70725;SDS011;58304;53.104;6.022;2023-04-19T04:25:21;9.30;;;2.60;;
70725;SDS011;58304;53.104;6.022;2023-04-19T04:27:49;5.82;;;2.40;;
70725;SDS011;58304;53.104;6.022;2023-04-19T04:30:16;5.70;;;2.30;;
70725;SDS011;58304;53.104;6.022;2023-04-19T04:32:41;4.82;;;2.40;;
70725;SDS011;58304;53.104;6.022;2023-04-19T04:35:07;6.63;;;2.78;;
70725;SDS011;58304;53.104;6.022;2023-04-19T04:37:34;6.07;;;2.88;;
70725;SDS011;58304;53.104;6.022;2023-04-19T04:40:01;5.07;;;2.65;;
70725;SDS011;58304;53.104;6.022;2023-04-19T04:42:29;5.28;;;2.50;;
70725;SDS011;58304;53.104;6.022;2023-04-19T04:44:55;5.35;;;2.78;;
70725;SDS011;58304;53.104;6.022;2023-04-19T04:47:22;4.90;;;2.30;;
70725;SDS011;58304;53.104;6.022;2023-04-19T04:52:13;4.50;;;1.88;;
70725;SDS011;58304;53.104;6.022;2023-04-19T04:54:39;5.47;;;2.30;;
70725;SDS011;58304;53.104;6.022;2023-04-19T05:01:56;5.07;;;2.40;;
70725;SDS011;58304;53.104;6.022;2023-04-19T05:09:12;6.45;;;2.20;;
70725;SDS011;58304;53.104;6.022;2023-04-19T05:11:38;5.88;;;2.25;;
70725;SDS011;58304;53.104;6.022;2023-04-19T05:14:04;4.90;;;2.35;;
70725;SDS011;58304;53.104;6.022;2023-04-19T05:16:29;5.25;;;2.42;;
70725;SDS011;58304;53.104;6.022;2023-04-19T05:18:55;5.38;;;2.42;;
70725;SDS011;58304;53.104;6.022;2023-04-19T05:21:20;5.60;;;2.33;;
70725;SDS011;58304;53.104;6.022;2023-04-19T05:23:46;5.68;;;2.47;;
70725;SDS011;58304;53.104;6.022;2023-04-19T05:26:12;8.15;;;2.60;;
70725;SDS011;58304;53.104;6.022;2023-04-19T05:28:39;5.97;;;2.63;;
70725;SDS011;58304;53.104;6.022;2023-04-19T05:31:07;5.85;;;2.42;;
70725;SDS011;58304;53.104;6.022;2023-04-19T05:33:33;5.78;;;2.58;;
70725;SDS011;58304;53.104;6.022;2023-04-19T05:35:59;5.63;;;2.58;;
70725;SDS011;58304;53.104;6.022;2023-04-19T05:43:15;6.13;;;3.00;;
70725;SDS011;58304;53.104;6.022;2023-04-19T05:45:42;8.85;;;3.17;;
70725;SDS011;58304;53.104;6.022;2023-04-19T05:48:07;5.68;;;2.72;;
70725;SDS011;58304;53.104;6.022;2023-04-19T05:53:00;7.05;;;2.60;;
70725;SDS011;58304;53.104;6.022;2023-04-19T06:05:08;6.43;;;2.88;;
70725;SDS011;58304;53.104;6.022;2023-04-19T06:07:34;6.07;;;3.00;;
70725;SDS011;58304;53.104;6.022;2023-04-19T06:12:25;6.00;;;2.83;;
70725;SDS011;58304;53.104;6.022;2023-04-19T06:17:17;6.57;;;2.70;;
70725;SDS011;58304;53.104;6.022;2023-04-19T06:19:47;7.32;;;2.80;;
70725;SDS011;58304;53.104;6.022;2023-04-19T06:24:38;5.75;;;2.40;;
70725;SDS011;58304;53.104;6.022;2023-04-19T06:29:30;6.35;;;2.50;;
70725;SDS011;58304;53.104;6.022;2023-04-19T06:34:21;4.88;;;2.10;;
70725;SDS011;58304;53.104;6.022;2023-04-19T06:36:47;8.07;;;3.10;;
70725;SDS011;58304;53.104;6.022;2023-04-19T06:39:13;4.57;;;2.20;;
70725;SDS011;58304;53.104;6.022;2023-04-19T06:41:40;4.88;;;2.03;;
70725;SDS011;58304;53.104;6.022;2023-04-19T06:44:06;5.55;;;2.35;;
70725;SDS011;58304;53.104;6.022;2023-04-19T06:46:31;4.32;;;2.10;;
70725;SDS011;58304;53.104;6.022;2023-04-19T06:48:57;5.35;;;2.13;;
70725;SDS011;58304;53.104;6.022;2023-04-19T06:51:23;4.75;;;2.08;;
70725;SDS011;58304;53.104;6.022;2023-04-19T06:53:48;4.05;;;1.95;;
70725;SDS011;58304;53.104;6.022;2023-04-19T06:56:15;4.57;;;2.13;;
70725;SDS011;58304;53.104;6.022;2023-04-19T06:58:40;4.00;;;2.08;;
70725;SDS011;58304;53.104;6.022;2023-04-19T07:01:06;4.05;;;1.70;;
70725;SDS011;58304;53.104;6.022;2023-04-19T07:03:32;3.40;;;1.85;;
70725;SDS011;58304;53.104;6.022;2023-04-19T07:05:57;4.53;;;1.67;;
70725;SDS011;58304;53.104;6.022;2023-04-19T07:08:23;4.32;;;1.80;;
70725;SDS011;58304;53.104;6.022;2023-04-19T07:10:50;3.95;;;1.70;;
70725;SDS011;58304;53.104;6.022;2023-04-19T07:13:17;4.35;;;1.70;;
70725;SDS011;58304;53.104;6.022;2023-04-19T07:15:42;4.78;;;1.95;;
70725;SDS011;58304;53.104;6.022;2023-04-19T07:18:08;5.00;;;1.80;;
70725;SDS011;58304;53.104;6.022;2023-04-19T07:20:35;3.58;;;1.60;;
70725;SDS011;58304;53.104;6.022;2023-04-19T07:23:00;4.32;;;1.80;;
70725;SDS011;58304;53.104;6.022;2023-04-19T07:25:26;3.10;;;1.60;;
70725;SDS011;58304;53.104;6.022;2023-04-19T07:27:52;5.03;;;1.70;;
70725;SDS011;58304;53.104;6.022;2023-04-19T07:30:19;2.50;;;1.50;;
70725;SDS011;58304;53.104;6.022;2023-04-19T07:32:45;3.47;;;1.70;;
70725;SDS011;58304;53.104;6.022;2023-04-19T07:35:11;2.75;;;1.30;;
70725;SDS011;58304;53.104;6.022;2023-04-19T07:37:36;4.10;;;1.45;;
70725;SDS011;58304;53.104;6.022;2023-04-19T07:40:02;2.47;;;1.27;;
70725;SDS011;58304;53.104;6.022;2023-04-19T07:42:29;5.10;;;1.33;;
70725;SDS011;58304;53.104;6.022;2023-04-19T07:44:55;6.78;;;1.58;;
70725;SDS011;58304;53.104;6.022;2023-04-19T07:47:24;3.40;;;1.30;;
70725;SDS011;58304;53.104;6.022;2023-04-19T07:49:59;3.42;;;1.60;;
70725;SDS011;58304;53.104;6.022;2023-04-19T07:52:25;3.95;;;1.23;;
70725;SDS011;58304;53.104;6.022;2023-04-19T07:54:51;4.72;;;1.27;;
70725;SDS011;58304;53.104;6.022;2023-04-19T07:57:16;2.42;;;1.40;;
70725;SDS011;58304;53.104;6.022;2023-04-19T07:59:42;2.60;;;1.30;;
70725;SDS011;58304;53.104;6.022;2023-04-19T08:02:08;2.80;;;1.35;;
70725;SDS011;58304;53.104;6.022;2023-04-19T08:04:33;2.20;;;1.38;;
70725;SDS011;58304;53.104;6.022;2023-04-19T08:06:59;2.72;;;1.52;;
70725;SDS011;58304;53.104;6.022;2023-04-19T08:09:25;3.55;;;1.33;;
70725;SDS011;58304;53.104;6.022;2023-04-19T08:11:51;2.40;;;1.33;;
70725;SDS011;58304;53.104;6.022;2023-04-19T08:14:17;4.15;;;1.52;;
70725;SDS011;58304;53.104;6.022;2023-04-19T08:16:43;3.95;;;1.40;;
70725;SDS011;58304;53.104;6.022;2023-04-19T08:19:08;3.72;;;1.35;;
70725;SDS011;58304;53.104;6.022;2023-04-19T08:21:34;3.95;;;1.60;;
70725;SDS011;58304;53.104;6.022;2023-04-19T08:24:03;3.40;;;1.50;;
70725;SDS011;58304;53.104;6.022;2023-04-19T08:26:45;3.47;;;1.80;;
70725;SDS011;58304;53.104;6.022;2023-04-19T08:29:17;3.78;;;1.50;;
70725;SDS011;58304;53.104;6.022;2023-04-19T08:31:47;2.67;;;1.40;;
70725;SDS011;58304;53.104;6.022;2023-04-19T08:34:15;3.15;;;1.40;;
70725;SDS011;58304;53.104;6.022;2023-04-19T08:36:41;2.58;;;1.30;;
70725;SDS011;58304;53.104;6.022;2023-04-19T08:39:07;7.35;;;1.63;;
70725;SDS011;58304;53.104;6.022;2023-04-19T08:41:35;2.38;;;1.35;;
70725;SDS011;58304;53.104;6.022;2023-04-19T08:44:01;2.60;;;1.35;;
70725;SDS011;58304;53.104;6.022;2023-04-19T08:46:29;3.25;;;1.60;;
70725;SDS011;58304;53.104;6.022;2023-04-19T08:48:58;3.75;;;1.42;;
70725;SDS011;58304;53.104;6.022;2023-04-19T08:51:25;6.45;;;1.60;;
70725;SDS011;58304;53.104;6.022;2023-04-19T08:53:53;3.75;;;1.50;;
70725;SDS011;58304;53.104;6.022;2023-04-19T08:56:21;2.83;;;1.45;;
70725;SDS011;58304;53.104;6.022;2023-04-19T08:58:48;3.42;;;1.80;;
70725;SDS011;58304;53.104;6.022;2023-04-19T09:01:15;4.63;;;1.50;;
70725;SDS011;58304;53.104;6.022;2023-04-19T09:03:42;2.97;;;1.65;;
70725;SDS011;58304;53.104;6.022;2023-04-19T09:06:09;2.55;;;1.40;;
70725;SDS011;58304;53.104;6.022;2023-04-19T09:08:36;2.78;;;1.30;;
70725;SDS011;58304;53.104;6.022;2023-04-19T09:11:03;4.32;;;1.50;;
70725;SDS011;58304;53.104;6.022;2023-04-19T09:13:28;2.35;;;1.20;;
70725;SDS011;58304;53.104;6.022;2023-04-19T09:15:55;3.75;;;1.50;;
70725;SDS011;58304;53.104;6.022;2023-04-19T09:18:23;3.33;;;1.20;;
70725;SDS011;58304;53.104;6.022;2023-04-19T09:20:49;3.17;;;1.40;;
70725;SDS011;58304;53.104;6.022;2023-04-19T09:23:21;2.75;;;1.30;;
70725;SDS011;58304;53.104;6.022;2023-04-19T09:28:18;6.57;;;1.23;;
70725;SDS011;58304;53.104;6.022;2023-04-19T09:30:44;3.75;;;1.30;;
70725;SDS011;58304;53.104;6.022;2023-04-19T09:33:11;2.20;;;1.20;;
70725;SDS011;58304;53.104;6.022;2023-04-19T09:35:44;3.88;;;1.23;;
70725;SDS011;58304;53.104;6.022;2023-04-19T09:38:15;2.53;;;1.10;;
70725;SDS011;58304;53.104;6.022;2023-04-19T09:40:41;2.38;;;1.20;;
70725;SDS011;58304;53.104;6.022;2023-04-19T09:43:07;2.95;;;1.30;;
70725;SDS011;58304;53.104;6.022;2023-04-19T09:45:39;3.78;;;1.38;;
70725;SDS011;58304;53.104;6.022;2023-04-19T09:48:07;2.70;;;1.40;;
70725;SDS011;58304;53.104;6.022;2023-04-19T09:50:53;2.67;;;1.30;;
70725;SDS011;58304;53.104;6.022;2023-04-19T09:53:21;3.10;;;1.17;;
70725;SDS011;58304;53.104;6.022;2023-04-19T09:55:48;2.15;;;1.10;;
70725;SDS011;58304;53.104;6.022;2023-04-19T09:58:17;2.22;;;1.20;;
70725;SDS011;58304;53.104;6.022;2023-04-19T10:00:44;4.10;;;1.20;;
70725;SDS011;58304;53.104;6.022;2023-04-19T10:03:12;2.97;;;1.30;;
70725;SDS011;58304;53.104;6.022;2023-04-19T10:05:40;2.78;;;1.33;;
70725;SDS011;58304;53.104;6.022;2023-04-19T10:08:07;2.17;;;1.27;;
70725;SDS011;58304;53.104;6.022;2023-04-19T10:10:33;2.42;;;1.27;;
70725;SDS011;58304;53.104;6.022;2023-04-19T10:13:05;2.20;;;1.08;;
70725;SDS011;58304;53.104;6.022;2023-04-19T10:15:33;3.72;;;1.30;;
70725;SDS011;58304;53.104;6.022;2023-04-19T10:18:01;2.42;;;1.20;;
70725;SDS011;58304;53.104;6.022;2023-04-19T10:20:41;3.70;;;1.17;;
70725;SDS011;58304;53.104;6.022;2023-04-19T10:23:14;2.10;;;1.17;;
70725;SDS011;58304;53.104;6.022;2023-04-19T10:25:44;2.08;;;1.10;;
70725;SDS011;58304;53.104;6.022;2023-04-19T10:28:10;2.78;;;1.25;;
70725;SDS011;58304;53.104;6.022;2023-04-19T10:30:36;5.53;;;1.15;;
70725;SDS011;58304;53.104;6.022;2023-04-19T10:33:28;3.47;;;1.10;;
70725;SDS011;58304;53.104;6.022;2023-04-19T10:36:01;3.45;;;1.20;;
70725;SDS011;58304;53.104;6.022;2023-04-19T10:38:34;2.05;;;0.80;;
70725;SDS011;58304;53.104;6.022;2023-04-19T10:41:12;2.70;;;0.98;;
70725;SDS011;58304;53.104;6.022;2023-04-19T10:43:39;2.13;;;1.00;;
70725;SDS011;58304;53.104;6.022;2023-04-19T10:51:31;2.13;;;1.20;;
70725;SDS011;58304;53.104;6.022;2023-04-19T10:54:09;2.25;;;1.00;;
70725;SDS011;58304;53.104;6.022;2023-04-19T10:56:55;1.70;;;0.90;;
70725;SDS011;58304;53.104;6.022;2023-04-19T10:59:27;2.75;;;1.00;;
70725;SDS011;58304;53.104;6.022;2023-04-19T11:02:04;1.52;;;0.80;;
70725;SDS011;58304;53.104;6.022;2023-04-19T11:07:18;2.10;;;0.80;;
70725;SDS011;58304;53.104;6.022;2023-04-19T11:09:45;1.70;;;0.90;;
70725;SDS011;58304;53.104;6.022;2023-04-19T11:12:18;2.05;;;0.75;;
70725;SDS011;58304;53.104;6.022;2023-04-19T11:14:46;1.77;;;1.00;;
70725;SDS011;58304;53.104;6.022;2023-04-19T11:17:16;1.40;;;0.80;;
70725;SDS011;58304;53.104;6.022;2023-04-19T11:19:56;1.30;;;0.77;;
70725;SDS011;58304;53.104;6.022;2023-04-19T11:22:33;2.15;;;0.85;;
70725;SDS011;58304;53.104;6.022;2023-04-19T11:25:07;2.97;;;0.88;;
70725;SDS011;58304;53.104;6.022;2023-04-19T11:27:33;1.70;;;0.80;;
70725;SDS011;58304;53.104;6.022;2023-04-19T11:30:03;3.03;;;0.98;;
70725;SDS011;58304;53.104;6.022;2023-04-19T11:32:30;3.78;;;0.90;;
70725;SDS011;58304;53.104;6.022;2023-04-19T11:35:01;4.53;;;0.93;;
70725;SDS011;58304;53.104;6.022;2023-04-19T11:37:32;2.25;;;1.00;;
70725;SDS011;58304;53.104;6.022;2023-04-19T11:39:59;2.55;;;1.10;;
70725;SDS011;58304;53.104;6.022;2023-04-19T11:42:24;1.50;;;0.80;;
70725;SDS011;58304;53.104;6.022;2023-04-19T11:44:50;2.22;;;0.93;;
70725;SDS011;58304;53.104;6.022;2023-04-19T11:47:17;2.40;;;0.95;;
70725;SDS011;58304;53.104;6.022;2023-04-19T11:49:43;2.92;;;1.00;;
70725;SDS011;58304;53.104;6.022;2023-04-19T11:52:10;1.95;;;1.00;;
70725;SDS011;58304;53.104;6.022;2023-04-19T11:54:35;1.83;;;0.93;;
70725;SDS011;58304;53.104;6.022;2023-04-19T11:57:07;2.13;;;0.93;;
70725;SDS011;58304;53.104;6.022;2023-04-19T11:59:34;3.33;;;1.00;;
70725;SDS011;58304;53.104;6.022;2023-04-19T12:02:07;2.17;;;1.15;;
70725;SDS011;58304;53.104;6.022;2023-04-19T12:04:34;1.50;;;0.90;;
70725;SDS011;58304;53.104;6.022;2023-04-19T12:07:01;3.53;;;1.15;;
70725;SDS011;58304;53.104;6.022;2023-04-19T12:09:28;2.65;;;0.88;;
70725;SDS011;58304;53.104;6.022;2023-04-19T12:11:54;2.17;;;1.13;;
70725;SDS011;58304;53.104;6.022;2023-04-19T12:14:24;2.35;;;1.00;;
70725;SDS011;58304;53.104;6.022;2023-04-19T12:17:07;2.65;;;1.00;;
70725;SDS011;58304;53.104;6.022;2023-04-19T12:22:12;2.10;;;1.15;;
70725;SDS011;58304;53.104;6.022;2023-04-19T12:24:39;2.60;;;1.10;;
70725;SDS011;58304;53.104;6.022;2023-04-19T12:27:05;2.10;;;1.10;;
70725;SDS011;58304;53.104;6.022;2023-04-19T12:29:30;2.92;;;1.40;;
70725;SDS011;58304;53.104;6.022;2023-04-19T12:31:58;2.38;;;1.30;;
70725;SDS011;58304;53.104;6.022;2023-04-19T12:34:24;3.65;;;1.40;;
70725;SDS011;58304;53.104;6.022;2023-04-19T12:36:49;2.08;;;1.20;;
70725;SDS011;58304;53.104;6.022;2023-04-19T12:39:15;2.42;;;1.30;;
70725;SDS011;58304;53.104;6.022;2023-04-19T12:41:44;2.47;;;1.20;;
70725;SDS011;58304;53.104;6.022;2023-04-19T12:44:12;4.10;;;1.50;;
70725;SDS011;58304;53.104;6.022;2023-04-19T12:46:38;3.58;;;1.50;;
70725;SDS011;58304;53.104;6.022;2023-04-19T12:49:04;3.05;;;1.50;;
70725;SDS011;58304;53.104;6.022;2023-04-19T12:51:32;3.58;;;1.63;;
70725;SDS011;58304;53.104;6.022;2023-04-19T12:54:00;3.40;;;1.30;;
70725;SDS011;58304;53.104;6.022;2023-04-19T12:56:26;2.97;;;1.50;;
70725;SDS011;58304;53.104;6.022;2023-04-19T12:58:52;3.17;;;1.30;;
70725;SDS011;58304;53.104;6.022;2023-04-19T13:01:17;3.05;;;1.50;;
70725;SDS011;58304;53.104;6.022;2023-04-19T13:03:43;3.72;;;1.80;;
70725;SDS011;58304;53.104;6.022;2023-04-19T13:06:09;4.03;;;1.50;;
70725;SDS011;58304;53.104;6.022;2023-04-19T13:08:39;3.25;;;1.50;;
70725;SDS011;58304;53.104;6.022;2023-04-19T13:11:05;4.22;;;1.92;;
70725;SDS011;58304;53.104;6.022;2023-04-19T13:13:32;3.05;;;1.67;;
70725;SDS011;58304;53.104;6.022;2023-04-19T13:15:58;5.22;;;1.77;;
70725;SDS011;58304;53.104;6.022;2023-04-19T13:18:25;2.70;;;1.50;;
70725;SDS011;58304;53.104;6.022;2023-04-19T13:20:54;3.25;;;1.60;;
70725;SDS011;58304;53.104;6.022;2023-04-19T13:23:21;3.60;;;1.70;;
70725;SDS011;58304;53.104;6.022;2023-04-19T13:25:46;7.10;;;1.65;;
70725;SDS011;58304;53.104;6.022;2023-04-19T13:28:12;3.88;;;1.58;;
70725;SDS011;58304;53.104;6.022;2023-04-19T13:30:38;4.05;;;1.70;;
70725;SDS011;58304;53.104;6.022;2023-04-19T13:33:03;4.82;;;1.80;;
70725;SDS011;58304;53.104;6.022;2023-04-19T13:35:29;2.95;;;1.50;;
70725;SDS011;58304;53.104;6.022;2023-04-19T13:37:55;3.63;;;1.60;;
70725;SDS011;58304;53.104;6.022;2023-04-19T13:40:20;2.85;;;1.48;;
70725;SDS011;58304;53.104;6.022;2023-04-19T13:42:46;3.58;;;1.65;;
70725;SDS011;58304;53.104;6.022;2023-04-19T13:45:12;2.90;;;1.60;;
70725;SDS011;58304;53.104;6.022;2023-04-19T13:47:37;2.67;;;1.50;;
70725;SDS011;58304;53.104;6.022;2023-04-19T13:50:03;3.42;;;1.50;;
70725;SDS011;58304;53.104;6.022;2023-04-19T13:52:29;2.67;;;1.50;;
70725;SDS011;58304;53.104;6.022;2023-04-19T13:54:55;2.75;;;1.35;;
70725;SDS011;58304;53.104;6.022;2023-04-19T13:57:20;3.08;;;1.67;;
70725;SDS011;58304;53.104;6.022;2023-04-19T13:59:46;2.80;;;1.45;;
70725;SDS011;58304;53.104;6.022;2023-04-19T14:02:11;3.17;;;1.80;;
70725;SDS011;58304;53.104;6.022;2023-04-19T14:04:37;3.28;;;1.40;;
70725;SDS011;58304;53.104;6.022;2023-04-19T14:07:03;3.75;;;1.42;;
70725;SDS011;58304;53.104;6.022;2023-04-19T14:09:28;2.78;;;1.55;;
70725;SDS011;58304;53.104;6.022;2023-04-19T14:11:54;3.42;;;1.50;;
70725;SDS011;58304;53.104;6.022;2023-04-19T14:14:20;3.45;;;1.70;;
70725;SDS011;58304;53.104;6.022;2023-04-19T14:16:45;3.47;;;1.38;;
70725;SDS011;58304;53.104;6.022;2023-04-19T14:19:11;2.70;;;1.42;;
70725;SDS011;58304;53.104;6.022;2023-04-19T14:21:37;3.65;;;1.67;;
70725;SDS011;58304;53.104;6.022;2023-04-19T14:24:02;4.35;;;1.60;;
70725;SDS011;58304;53.104;6.022;2023-04-19T14:26:28;4.72;;;1.73;;
70725;SDS011;58304;53.104;6.022;2023-04-19T14:28:54;3.33;;;1.40;;
70725;SDS011;58304;53.104;6.022;2023-04-19T14:31:19;3.42;;;1.35;;
70725;SDS011;58304;53.104;6.022;2023-04-19T14:33:45;3.67;;;1.50;;
70725;SDS011;58304;53.104;6.022;2023-04-19T14:36:10;4.55;;;1.75;;
70725;SDS011;58304;53.104;6.022;2023-04-19T14:38:36;4.55;;;1.50;;
70725;SDS011;58304;53.104;6.022;2023-04-19T14:41:04;3.08;;;1.40;;
70725;SDS011;58304;53.104;6.022;2023-04-19T14:43:29;4.72;;;1.52;;
70725;SDS011;58304;53.104;6.022;2023-04-19T14:45:55;3.97;;;1.80;;
70725;SDS011;58304;53.104;6.022;2023-04-19T14:48:21;3.70;;;1.73;;
70725;SDS011;58304;53.104;6.022;2023-04-19T14:50:47;4.53;;;1.75;;
70725;SDS011;58304;53.104;6.022;2023-04-19T14:53:12;3.67;;;1.67;;
70725;SDS011;58304;53.104;6.022;2023-04-19T14:55:38;3.05;;;1.60;;
70725;SDS011;58304;53.104;6.022;2023-04-19T14:58:04;2.28;;;1.40;;
70725;SDS011;58304;53.104;6.022;2023-04-19T15:00:29;4.85;;;1.70;;
70725;SDS011;58304;53.104;6.022;2023-04-19T15:02:55;3.88;;;1.75;;
70725;SDS011;58304;53.104;6.022;2023-04-19T15:05:21;3.60;;;1.63;;
70725;SDS011;58304;53.104;6.022;2023-04-19T15:07:49;4.78;;;1.70;;
70725;SDS011;58304;53.104;6.022;2023-04-19T15:10:14;3.60;;;1.40;;
70725;SDS011;58304;53.104;6.022;2023-04-19T15:12:40;4.88;;;1.60;;
70725;SDS011;58304;53.104;6.022;2023-04-19T15:15:06;3.90;;;1.48;;
70725;SDS011;58304;53.104;6.022;2023-04-19T15:20:09;3.22;;;1.52;;
70725;SDS011;58304;53.104;6.022;2023-04-19T15:22:41;2.30;;;1.40;;
70725;SDS011;58304;53.104;6.022;2023-04-19T15:25:07;3.47;;;1.60;;
70725;SDS011;58304;53.104;6.022;2023-04-19T15:27:39;3.35;;;1.40;;
70725;SDS011;58304;53.104;6.022;2023-04-19T15:30:10;4.57;;;1.70;;
70725;SDS011;58304;53.104;6.022;2023-04-19T15:32:40;3.83;;;1.40;;
70725;SDS011;58304;53.104;6.022;2023-04-19T15:35:07;2.72;;;1.35;;
70725;SDS011;58304;53.104;6.022;2023-04-19T15:37:52;2.63;;;1.30;;
70725;SDS011;58304;53.104;6.022;2023-04-19T15:40:30;2.40;;;1.40;;
70725;SDS011;58304;53.104;6.022;2023-04-19T15:43:18;2.30;;;1.20;;
70725;SDS011;58304;53.104;6.022;2023-04-19T15:46:41;2.50;;;1.23;;
70725;SDS011;58304;53.104;6.022;2023-04-19T15:49:10;2.33;;;1.00;;
70725;SDS011;58304;53.104;6.022;2023-04-19T15:51:45;3.17;;;1.20;;
70725;SDS011;58304;53.104;6.022;2023-04-19T15:54:12;3.05;;;1.35;;
70725;SDS011;58304;53.104;6.022;2023-04-19T15:56:45;3.20;;;1.25;;
70725;SDS011;58304;53.104;6.022;2023-04-19T16:02:41;3.22;;;1.10;;
70725;SDS011;58304;53.104;6.022;2023-04-19T16:05:08;2.80;;;1.20;;
70725;SDS011;58304;53.104;6.022;2023-04-19T16:07:36;4.68;;;1.17;;
70725;SDS011;58304;53.104;6.022;2023-04-19T16:10:03;2.88;;;1.02;;
70725;SDS011;58304;53.104;6.022;2023-04-19T16:12:34;4.05;;;1.20;;
70725;SDS011;58304;53.104;6.022;2023-04-19T16:15:01;2.50;;;1.23;;
70725;SDS011;58304;53.104;6.022;2023-04-19T16:17:30;2.42;;;1.17;;
70725;SDS011;58304;53.104;6.022;2023-04-19T16:19:56;2.28;;;1.10;;
70725;SDS011;58304;53.104;6.022;2023-04-19T16:22:22;3.67;;;1.60;;
70725;SDS011;58304;53.104;6.022;2023-04-19T16:24:51;3.05;;;1.20;;
70725;SDS011;58304;53.104;6.022;2023-04-19T16:27:18;2.80;;;1.20;;
70725;SDS011;58304;53.104;6.022;2023-04-19T16:30:05;2.50;;;1.20;;
70725;SDS011;58304;53.104;6.022;2023-04-19T16:41:39;3.15;;;1.15;;
70725;SDS011;58304;53.104;6.022;2023-04-19T16:44:05;2.38;;;1.15;;
70725;SDS011;58304;53.104;6.022;2023-04-19T16:46:36;2.85;;;1.50;;
70725;SDS011;58304;53.104;6.022;2023-04-19T16:49:02;2.30;;;1.40;;
70725;SDS011;58304;53.104;6.022;2023-04-19T16:51:29;3.88;;;1.60;;
70725;SDS011;58304;53.104;6.022;2023-04-19T16:53:55;3.65;;;1.50;;
70725;SDS011;58304;53.104;6.022;2023-04-19T16:56:24;2.53;;;1.20;;
70725;SDS011;58304;53.104;6.022;2023-04-19T16:59:12;3.60;;;1.40;;
70725;SDS011;58304;53.104;6.022;2023-04-19T17:01:38;3.28;;;1.20;;
70725;SDS011;58304;53.104;6.022;2023-04-19T17:04:04;3.17;;;1.50;;
70725;SDS011;58304;53.104;6.022;2023-04-19T17:06:30;3.17;;;1.40;;
70725;SDS011;58304;53.104;6.022;2023-04-19T17:09:00;4.20;;;1.48;;
70725;SDS011;58304;53.104;6.022;2023-04-19T17:11:30;2.92;;;1.48;;
70725;SDS011;58304;53.104;6.022;2023-04-19T17:13:58;2.83;;;1.33;;
70725;SDS011;58304;53.104;6.022;2023-04-19T17:16:24;2.88;;;1.33;;
70725;SDS011;58304;53.104;6.022;2023-04-19T17:18:53;5.70;;;1.42;;
70725;SDS011;58304;53.104;6.022;2023-04-19T17:21:20;4.25;;;1.35;;
70725;SDS011;58304;53.104;6.022;2023-04-19T17:23:45;2.78;;;1.40;;
70725;SDS011;58304;53.104;6.022;2023-04-19T17:26:20;2.80;;;1.40;;
70725;SDS011;58304;53.104;6.022;2023-04-19T17:28:46;3.50;;;1.67;;
70725;SDS011;58304;53.104;6.022;2023-04-19T17:31:12;4.13;;;1.80;;
70725;SDS011;58304;53.104;6.022;2023-04-19T17:33:38;3.50;;;1.60;;
70725;SDS011;58304;53.104;6.022;2023-04-19T17:36:04;2.67;;;1.17;;
70725;SDS011;58304;53.104;6.022;2023-04-19T17:38:31;3.58;;;1.30;;
70725;SDS011;58304;53.104;6.022;2023-04-19T17:40:56;4.75;;;1.42;;